LSZR/ACH METAR and TAF weather

Enter ICAO airport designator
Station Type Date Time Source
LSZR METAR 2021/01/20 22:20 UTC NOAA

LSZR 202220Z AUTO VRB08KT CAVOK 10/M02 Q1004


Station Type Date Time Source
LSZR Decoded METAR 2021/01/20 22:20 UTC NOAA

Saint Gallen-Altenrhein, Switzerland (LSZR) 47-29-06N 009-33-43E
Jan 20, 2021 - 05:20 PM EST / 2021.01.20 2220 UTC
Wind: Variable at 9 MPH (8 KT):0
Visibility: greater than 7 mile(s):0
Temperature: 50 F (10 C)
Dew Point: 28 F (-2 C)
Relative Humidity: 42%
Pressure (altimeter): 29.65 in. Hg (1004 hPa)
ob: LSZR 202220Z AUTO VRB08KT CAVOK 10/M02 Q1004
cycle: 22

Station Type Date Time Source
LSZR TAF 2014/12/22 20:03 UTC NOAA

TAF
AMD LSZR 222054Z 2220/2224 CNL

Example: see airport list